Time,TemperatureF,DewpointF,PressureIn,WindDirection,WindDirectionDegrees,WindSpeedMPH,WindSpeedGustMPH,Humidity,HourlyPrecipIn,Conditions,Clouds,dailyrainin,SoftwareType,DateUTC
2013-04-17 00:00:00,55.1,51.0,30.13,SSW,211,12.7,12.7,86,0.00,OVC,,0.00,WeatherDisplay:10.37,2013-04-17 04:00:00,
2013-04-17 00:01:00,55.1,51.0,30.13,SW,217,12.7,12.7,86,0.00,OVC,,0.00,WeatherDisplay:10.37,2013-04-17 04:01:00,
2013-04-17 00:07:00,55.0,50.9,30.12,SW,228,16.1,16.1,86,0.00,OVC,,0.00,WeatherDisplay:10.37,2013-04-17 04:07:00,
2013-04-17 00:12:00,54.9,50.8,30.13,SW,223,16.1,16.1,86,0.00,OVC,,0.00,WeatherDisplay:10.37,2013-04-17 04:12:00,
2013-04-17 00:17:00,54.9,50.8,30.13,South,173,12.7,12.7,86,0.00,OVC,,0.00,WeatherDisplay:10.37,2013-04-17 04:17:00,
2013-04-17 00:22:00,54.8,51.0,30.13,SSW,199,12.7,12.7,87,0.00,OVC,,0.00,WeatherDisplay:10.37,2013-04-17 04:22:00,
2013-04-17 00:27:00,54.8,51.0,30.13,SW,222,19.6,19.6,87,0.00,OVC,,0.00,WeatherDisplay:10.37,2013-04-17 04:27:00,
2013-04-17 00:32:00,55.0,51.2,30.12,South,182,11.5,11.5,87,0.00,OVC,,0.00,WeatherDisplay:10.37,2013-04-17 04:32:00,
2013-04-17 00:37:00,55.1,51.3,30.12,SSW,205,20.7,20.7,87,0.00,OVC,,0.00,WeatherDisplay:10.37,2013-04-17 04:37:00,
2013-04-17 00:42:00,55.3,51.5,30.13,SW,227,20.7,20.7,87,0.00,OVC,,0.00,WeatherDisplay:10.37,2013-04-17 04:42:00,
2013-04-17 00:47:00,55.3,51.5,30.12,SW,218,17.3,17.3,87,0.00,OVC,,0.00,WeatherDisplay:10.37,2013-04-17 04:47:00,
2013-04-17 00:53:00,55.3,51.5,30.12,SSW,198,19.6,19.6,87,0.00,OVC,,0.00,WeatherDisplay:10.37,2013-04-17 04:53:00,
2013-04-17 00:58:00,55.1,51.6,30.12,SSW,198,13.8,13.8,88,0.00,OVC,,0.00,WeatherDisplay:10.37,2013-04-17 04:58:00,
2013-04-17 01:03:00,55.2,51.7,30.12,SSW,213,15.0,15.0,88,0.00,OVC,,0.00,WeatherDisplay:10.37,2013-04-17 05:03:00,
2013-04-17 01:08:00,55.3,51.8,30.12,SSW,198,15.0,15.0,88,0.00,OVC,,0.00,WeatherDisplay:10.37,2013-04-17 05:08:00,
2013-04-17 01:13:00,55.2,51.7,30.12,SW,215,12.7,12.7,88,0.00,OVC,,0.00,WeatherDisplay:10.37,2013-04-17 05:13:00,
2013-04-17 01:19:00,55.1,51.6,30.12,SW,232,12.0,12.0,88,0.00,OVC,,0.00,WeatherDisplay:10.37,2013-04-17 05:19:00,
2013-04-17 01:24:00,55.0,51.5,30.12,SW,230,10.4,10.4,88,0.00,OVC,,0.00,WeatherDisplay:10.37,2013-04-17 05:24:00,
2013-04-17 01:29:00,55.0,51.8,30.12,SW,215,11.5,11.5,89,0.00,OVC,,0.00,WeatherDisplay:10.37,2013-04-17 05:29:00,
2013-04-17 01:34:00,55.0,51.8,30.12,SW,217,10.4,10.4,89,0.00,OVC,,0.00,WeatherDisplay:10.37,2013-04-17 05:34:00,
2013-04-17 01:39:00,55.0,51.8,30.11,SW,234,10.4,10.4,89,0.00,OVC,,0.00,WeatherDisplay:10.37,2013-04-17 05:39:00,
2013-04-17 01:44:00,55.0,51.8,30.11,SSW,195,6.9,6.9,89,0.00,OVC,,0.00,WeatherDisplay:10.37,2013-04-17 05:44:00,
2013-04-17 01:49:00,55.0,51.8,30.11,SSW,211,8.1,8.1,89,0.00,OVC,,0.00,WeatherDisplay:10.37,2013-04-17 05:49:00,
2013-04-17 01:55:00,55.0,51.8,30.11,SSW,209,9.2,9.2,89,0.00,OVC,,0.00,WeatherDisplay:10.37,2013-04-17 05:55:00,
2013-04-17 02:00:00,55.1,51.9,30.11,SW,216,8.0,12.0,89,0.00,OVC,,0.00,WeatherDisplay:10.37,2013-04-17 06:00:00,
2013-04-17 02:05:00,55.2,52.0,30.11,SW,231,9.2,9.2,89,0.00,OVC,,0.00,WeatherDisplay:10.37,2013-04-17 06:05:00,
2013-04-17 02:10:00,55.2,52.0,30.11,SSW,213,8.1,8.1,89,0.00,OVC,,0.00,WeatherDisplay:10.37,2013-04-17 06:10:00,
2013-04-17 02:15:00,55.1,51.9,30.11,SW,220,5.8,5.8,89,0.00,OVC,,0.00,WeatherDisplay:10.37,2013-04-17 06:15:00,
2013-04-17 02:21:00,55.0,51.8,30.11,SSW,210,6.9,6.9,89,0.00,OVC,,0.00,WeatherDisplay:10.37,2013-04-17 06:21:00,
2013-04-17 02:26:00,55.0,51.8,30.11,SSW,211,5.8,5.8,89,0.00,OVC,,0.00,WeatherDisplay:10.37,2013-04-17 06:26:00,
2013-04-17 02:31:00,55.0,51.8,30.11,SSW,211,5.8,5.8,89,0.00,OVC,,0.00,WeatherDisplay:10.37,2013-04-17 06:31:00,
2013-04-17 02:36:00,54.9,51.7,30.11,SSW,206,6.0,6.0,89,0.00,OVC,,0.00,WeatherDisplay:10.37,2013-04-17 06:36:00,
2013-04-17 02:41:00,54.9,52.0,30.10,South,186,8.1,8.1,90,0.00,OVC,,0.00,WeatherDisplay:10.37,2013-04-17 06:41:00,
2013-04-17 02:47:00,55.0,51.8,30.10,SW,214,5.8,5.8,89,0.00,OVC,,0.00,WeatherDisplay:10.37,2013-04-17 06:47:00,
2013-04-17 02:52:00,55.0,52.1,30.11,SW,215,6.9,6.9,90,0.00,OVC,,0.00,WeatherDisplay:10.37,2013-04-17 06:52:00,
2013-04-17 02:57:00,55.0,52.1,30.10,SSW,203,5.8,5.8,90,0.00,OVC,,0.00,WeatherDisplay:10.37,2013-04-17 06:57:00,
2013-04-17 03:02:00,54.9,52.0,30.10,SW,226,6.9,6.9,90,0.00,OVC,,0.00,WeatherDisplay:10.37,2013-04-17 07:02:00,
2013-04-17 03:07:00,55.0,52.1,30.10,SSW,205,6.0,6.0,90,0.00,OVC,,0.00,WeatherDisplay:10.37,2013-04-17 07:07:00,
2013-04-17 03:12:00,55.0,52.1,30.10,SW,219,10.4,10.4,90,0.00,OVC,,0.00,WeatherDisplay:10.37,2013-04-17 07:12:00,
2013-04-17 03:17:00,55.1,52.2,30.10,SW,221,4.6,4.6,90,0.00,OVC,,0.00,WeatherDisplay:10.37,2013-04-17 07:17:00,
2013-04-17 03:23:00,55.1,52.2,30.10,WSW,244,4.0,4.4,90,0.00,OVC,,0.00,WeatherDisplay:10.37,2013-04-17 07:23:00,
2013-04-17 03:28:00,55.2,52.3,30.10,West,276,8.1,8.1,90,0.00,OVC,,0.00,WeatherDisplay:10.37,2013-04-17 07:28:00,
2013-04-17 03:33:00,55.3,52.4,30.10,SW,229,6.9,6.9,90,0.00,OVC,,0.00,WeatherDisplay:10.37,2013-04-17 07:33:00,
2013-04-17 03:38:00,55.3,52.4,30.10,SW,228,5.8,5.8,90,0.00,OVC,,0.00,WeatherDisplay:10.37,2013-04-17 07:38:00,
2013-04-17 03:43:00,55.5,52.6,30.10,WSW,244,9.0,9.0,90,0.00,OVC,,0.00,WeatherDisplay:10.37,2013-04-17 07:43:00,
2013-04-17 03:48:00,55.7,52.5,30.10,WSW,254,6.0,6.0,89,0.00,OVC,,0.00,WeatherDisplay:10.37,2013-04-17 07:48:00,
2013-04-17 03:53:00,55.8,52.6,30.12,NW,321,11.5,11.5,89,0.00,OVC,,0.00,WeatherDisplay:10.37,2013-04-17 07:53:00,
2013-04-17 03:58:00,56.0,52.8,30.11,WNW,303,3.5,3.5,89,0.00,OVC,,0.00,WeatherDisplay:10.37,2013-04-17 07:58:00,
2013-04-17 04:03:00,56.2,53.0,30.12,WNW,288,6.9,6.9,89,0.00,OVC,,0.00,WeatherDisplay:10.37,2013-04-17 08:03:00,
2013-04-17 04:08:00,56.4,53.2,30.11,WNW,298,4.6,4.6,89,0.00,OVC,,0.00,WeatherDisplay:10.37,2013-04-17 08:08:00,
2013-04-17 04:14:00,56.5,53.3,30.11,WNW,284,4.6,4.6,89,0.00,OVC,,0.00,WeatherDisplay:10.37,2013-04-17 08:14:00,
2013-04-17 04:19:00,56.5,53.3,30.11,WNW,284,6.0,6.0,89,0.00,OVC,,0.00,WeatherDisplay:10.37,2013-04-17 08:19:00,
2013-04-17 04:24:00,56.5,53.3,30.11,WNW,293,3.5,3.5,89,0.00,OVC,,0.00,WeatherDisplay:10.37,2013-04-17 08:24:00,
2013-04-17 04:29:00,56.5,53.3,30.12,WNW,297,3.5,3.5,89,0.00,OVC,,0.00,WeatherDisplay:10.37,2013-04-17 08:29:00,
2013-04-17 04:34:00,56.3,53.4,30.11,WNW,297,2.3,2.3,90,0.00,OVC,,0.00,WeatherDisplay:10.37,2013-04-17 08:34:00,
2013-04-17 04:39:00,56.2,53.3,30.11,WNW,297,3.5,3.5,90,0.00,OVC,,0.00,WeatherDisplay:10.37,2013-04-17 08:39:00,
2013-04-17 04:44:00,56.1,53.2,30.11,WNW,291,3.5,3.5,90,0.00,OVC,,0.00,WeatherDisplay:10.37,2013-04-17 08:44:00,
2013-04-17 04:50:00,56.0,53.4,30.11,NW,320,5.0,5.0,91,0.00,OVC,,0.00,WeatherDisplay:10.37,2013-04-17 08:50:00,
2013-04-17 04:55:00,55.8,53.2,30.11,NW,318,9.2,9.2,91,0.00,OVC,,0.00,WeatherDisplay:10.37,2013-04-17 08:55:00,
2013-04-17 05:00:00,55.6,53.0,30.11,NNW,339,10.4,10.4,91,0.00,OVC,,0.00,WeatherDisplay:10.37,2013-04-17 09:00:00,
2013-04-17 05:05:00,55.4,52.5,30.12,WNW,298,8.1,8.1,90,0.00,OVC,,0.00,WeatherDisplay:10.37,2013-04-17 09:05:00,
2013-04-17 05:11:00,55.2,52.0,30.11,NNW,342,9.2,9.2,89,0.00,OVC,,0.00,WeatherDisplay:10.37,2013-04-17 09:11:00,
2013-04-17 05:16:00,55.0,51.2,30.11,NNW,327,9.0,9.0,87,0.00,OVC,,0.00,WeatherDisplay:10.37,2013-04-17 09:16:00,
2013-04-17 05:21:00,54.7,50.3,30.11,North,360,11.5,11.5,85,0.00,OVC,,0.00,WeatherDisplay:10.37,2013-04-17 09:21:00,
2013-04-17 05:26:00,54.4,49.3,30.12,North,349,13.0,13.0,83,0.00,OVC,,0.00,WeatherDisplay:10.37,2013-04-17 09:26:00,
2013-04-17 05:31:00,54.2,48.2,30.12,North,349,10.4,10.4,80,0.00,OVC,,0.00,WeatherDisplay:10.37,2013-04-17 09:31:00,
2013-04-17 05:36:00,54.0,46.3,30.12,NNW,342,12.7,12.7,75,0.00,OVC,,0.00,WeatherDisplay:10.37,2013-04-17 09:36:00,
2013-04-17 05:42:00,54.0,45.5,30.12,NW,319,10.4,10.4,73,0.00,OVC,,0.00,WeatherDisplay:10.37,2013-04-17 09:42:00,
2013-04-17 05:47:00,54.1,45.3,30.11,North,350,10.4,10.4,72,0.00,OVC,,0.00,WeatherDisplay:10.37,2013-04-17 09:47:00,
2013-04-17 05:52:00,53.9,45.1,30.12,North,349,6.9,6.9,72,0.00,OVC,,0.00,WeatherDisplay:10.37,2013-04-17 09:52:00,
2013-04-17 05:57:00,53.8,45.0,30.12,NNW,346,9.2,9.2,72,0.00,OVC,,0.00,WeatherDisplay:10.37,2013-04-17 09:57:00,
2013-04-17 06:03:00,53.7,44.1,30.12,NW,324,9.2,9.2,70,0.00,OVC,,0.00,WeatherDisplay:10.37,2013-04-17 10:03:00,
2013-04-17 06:08:00,53.6,44.0,30.13,NW,323,6.9,6.9,70,0.00,OVC,,0.00,WeatherDisplay:10.37,2013-04-17 10:08:00,
2013-04-17 06:13:00,53.6,43.7,30.12,NNW,333,9.2,9.2,69,0.00,OVC,,0.00,WeatherDisplay:10.37,2013-04-17 10:13:00,
2013-04-17 06:18:00,53.5,43.2,30.12,NW,306,9.2,9.2,68,0.00,OVC,,0.00,WeatherDisplay:10.37,2013-04-17 10:18:00,
2013-04-17 06:23:00,53.5,43.2,30.12,NNW,333,5.8,5.8,68,0.00,OVC,,0.00,WeatherDisplay:10.37,2013-04-17 10:23:00,
2013-04-17 06:28:00,53.5,43.2,30.12,NNW,333,4.6,4.6,68,0.00,OVC,,0.00,WeatherDisplay:10.37,2013-04-17 10:28:00,
2013-04-17 06:33:00,53.5,43.2,30.13,NNW,332,4.0,4.0,68,0.00,OVC,,0.00,WeatherDisplay:10.37,2013-04-17 10:33:00,
2013-04-17 06:39:00,53.4,43.1,30.13,NNW,332,8.1,8.1,68,0.00,OVC,,0.00,WeatherDisplay:10.37,2013-04-17 10:39:00,
2013-04-17 06:44:00,53.4,42.3,30.13,NNW,340,7.0,7.0,66,0.00,OVC,,0.00,WeatherDisplay:10.37,2013-04-17 10:44:00,
2013-04-17 06:49:00,53.5,42.0,30.14,NW,311,10.4,10.4,65,0.00,OVC,,0.00,WeatherDisplay:10.37,2013-04-17 10:49:00,
2013-04-17 06:54:00,53.5,41.6,30.14,NW,317,5.8,5.8,64,0.00,OVC,,0.00,WeatherDisplay:10.37,2013-04-17 10:54:00,
2013-04-17 06:59:00,53.5,40.8,30.15,NNW,330,11.5,11.5,62,0.00,OVC,,0.00,WeatherDisplay:10.37,2013-04-17 10:59:00,
2013-04-17 07:04:00,53.5,40.8,30.15,NNW,335,8.0,8.0,62,0.00,OVC,,0.00,WeatherDisplay:10.37,2013-04-17 11:04:00,
2013-04-17 07:09:00,53.5,40.8,30.15,NNW,336,6.0,6.0,62,0.00,OVC,,0.00,WeatherDisplay:10.37,2013-04-17 11:09:00,
2013-04-17 07:15:00,53.5,40.8,30.15,NW,321,9.2,9.2,62,0.00,OVC,,0.00,WeatherDisplay:10.37,2013-04-17 11:15:00,
2013-04-17 07:20:00,53.5,40.4,30.15,NW,311,9.2,9.2,61,0.00,OVC,,0.00,WeatherDisplay:10.37,2013-04-17 11:20:00,
2013-04-17 07:25:00,53.5,40.4,30.15,NW,323,5.8,5.8,61,0.00,OVC,,0.00,WeatherDisplay:10.37,2013-04-17 11:25:00,
2013-04-17 07:30:00,53.5,40.4,30.15,NNW,333,5.8,5.8,61,0.00,OVC,,0.00,WeatherDisplay:10.37,2013-04-17 11:30:00,
2013-04-17 07:35:00,53.6,40.5,30.16,NNW,330,6.9,6.9,61,0.00,OVC,,0.00,WeatherDisplay:10.37,2013-04-17 11:35:00,
2013-04-17 07:40:00,53.6,40.0,30.16,NW,317,7.0,7.0,60,0.00,OVC,,0.00,WeatherDisplay:10.37,2013-04-17 11:40:00,
2013-04-17 07:46:00,53.7,40.1,30.16,NNW,332,6.0,6.0,60,0.00,OVC,,0.00,WeatherDisplay:10.37,2013-04-17 11:46:00,
2013-04-17 07:51:00,53.7,40.1,30.16,NNW,339,9.0,9.0,60,0.00,OVC,,0.00,WeatherDisplay:10.37,2013-04-17 11:51:00,
2013-04-17 07:56:00,53.8,40.2,30.16,NW,316,10.4,10.4,60,0.00,OVC,,0.00,WeatherDisplay:10.37,2013-04-17 11:56:00,
2013-04-17 08:02:00,53.9,40.3,30.16,NW,325,10.4,10.4,60,0.00,OVC,,0.00,WeatherDisplay:10.37,2013-04-17 12:02:00,
2013-04-17 08:07:00,54.0,40.0,30.17,NNW,329,10.4,10.4,59,0.00,OVC,,0.00,WeatherDisplay:10.37,2013-04-17 12:07:00,
2013-04-17 08:12:00,54.2,40.6,30.17,NW,321,13.0,13.0,60,0.00,OVC,,0.00,WeatherDisplay:10.37,2013-04-17 12:12:00,
2013-04-17 08:17:00,54.2,40.6,30.17,NW,321,12.7,12.7,60,0.00,OVC,,0.00,WeatherDisplay:10.37,2013-04-17 12:17:00,
2013-04-17 08:22:00,54.2,40.6,30.17,NNW,336,10.4,10.4,60,0.00,OVC,,0.00,WeatherDisplay:10.37,2013-04-17 12:22:00,
2013-04-17 08:28:00,54.2,40.6,30.17,NNW,328,11.5,11.5,60,0.00,OVC,,0.00,WeatherDisplay:10.37,2013-04-17 12:28:00,
2013-04-17 08:33:00,54.1,41.4,30.18,NNW,343,10.4,10.4,62,0.00,OVC,,0.00,WeatherDisplay:10.37,2013-04-17 12:33:00,
2013-04-17 08:38:00,54.1,41.4,30.18,NNW,341,14.0,14.0,62,0.00,OVC,,0.00,WeatherDisplay:10.37,2013-04-17 12:38:00,
2013-04-17 08:43:00,54.0,41.3,30.18,NNW,335,11.5,11.5,62,0.00,OVC,,0.00,WeatherDisplay:10.37,2013-04-17 12:43:00,
2013-04-17 08:48:00,54.0,41.3,30.18,NW,324,13.8,13.8,62,0.00,OVC,,0.00,WeatherDisplay:10.37,2013-04-17 12:48:00,
2013-04-17 08:53:00,54.0,41.3,30.18,NNW,338,11.5,11.5,62,0.00,OVC,,0.00,WeatherDisplay:10.37,2013-04-17 12:53:00,
2013-04-17 08:58:00,54.1,41.8,30.18,NNW,344,11.5,11.5,63,0.00,OVC,,0.00,WeatherDisplay:10.37,2013-04-17 12:58:00,
2013-04-17 09:04:00,54.3,41.6,30.18,NNW,334,11.5,11.5,62,0.00,BKN,,0.00,WeatherDisplay:10.37,2013-04-17 13:04:00,
2013-04-17 09:09:00,54.6,41.4,30.18,NNW,340,15.0,15.0,61,0.00,BKN,,0.00,WeatherDisplay:10.37,2013-04-17 13:09:00,
2013-04-17 09:14:00,54.7,41.5,30.18,NNW,329,11.5,11.5,61,0.00,BKN,,0.00,WeatherDisplay:10.37,2013-04-17 13:14:00,
2013-04-17 09:19:00,54.8,41.6,30.18,NNW,338,7.0,7.0,61,0.00,BKN,,0.00,WeatherDisplay:10.37,2013-04-17 13:19:00,
2013-04-17 09:24:00,55.0,41.4,30.18,NNW,338,11.5,11.5,60,0.00,BKN,,0.00,WeatherDisplay:10.37,2013-04-17 13:24:00,
2013-04-17 09:29:00,55.3,41.6,30.18,WNW,295,9.0,9.0,60,0.00,BKN,,0.00,WeatherDisplay:10.37,2013-04-17 13:29:00,
2013-04-17 09:34:00,55.7,41.6,30.19,NNW,335,9.2,9.2,59,0.00,BKN,,0.00,WeatherDisplay:10.37,2013-04-17 13:34:00,
2013-04-17 09:40:00,56.0,42.3,30.19,NNW,327,12.7,12.7,60,0.00,BKN,,0.00,WeatherDisplay:10.37,2013-04-17 13:40:00,
2013-04-17 09:45:00,56.3,42.6,30.19,NW,306,8.1,8.1,60,0.00,BKN,,0.00,WeatherDisplay:10.37,2013-04-17 13:45:00,
2013-04-17 09:50:00,56.4,41.8,30.19,NNW,334,12.7,12.7,58,0.00,BKN,,0.00,WeatherDisplay:10.37,2013-04-17 13:50:00,
2013-04-17 09:55:00,56.6,42.0,30.19,NNW,336,10.4,10.4,58,0.00,BKN,,0.00,WeatherDisplay:10.37,2013-04-17 13:55:00,
2013-04-17 10:00:00,56.8,41.3,30.19,NW,321,9.2,9.2,56,0.00,BKN,,0.00,WeatherDisplay:10.37,2013-04-17 14:00:00,
2013-04-17 10:05:00,57.2,42.1,30.19,NNW,333,12.0,12.0,57,0.00,BKN,,0.00,WeatherDisplay:10.37,2013-04-17 14:05:00,
2013-04-17 10:11:00,57.5,41.0,30.19,NW,313,13.8,13.8,54,0.00,BKN,,0.00,WeatherDisplay:10.37,2013-04-17 14:11:00,
2013-04-17 10:16:00,57.8,41.3,30.19,WNW,290,9.2,9.2,54,0.00,BKN,,0.00,WeatherDisplay:10.37,2013-04-17 14:16:00,
2013-04-17 10:21:00,58.3,40.7,30.18,NW,319,11.5,11.5,52,0.00,BKN,,0.00,WeatherDisplay:10.37,2013-04-17 14:21:00,
2013-04-17 10:26:00,58.5,40.4,30.19,NW,324,13.8,13.8,51,0.00,BKN,,0.00,WeatherDisplay:10.37,2013-04-17 14:26:00,
2013-04-17 10:32:00,58.6,41.5,30.19,WNW,300,12.7,12.7,53,0.00,BKN,,0.00,WeatherDisplay:10.37,2013-04-17 14:32:00,
2013-04-17 10:37:00,58.7,41.1,30.19,NW,322,5.8,5.8,52,0.00,BKN,,0.00,WeatherDisplay:10.37,2013-04-17 14:37:00,
2013-04-17 10:42:00,59.2,41.1,30.19,NW,326,11.0,11.0,51,0.00,BKN,,0.00,WeatherDisplay:10.37,2013-04-17 14:42:00,
2013-04-17 10:47:00,59.3,40.7,30.19,WNW,297,12.0,12.0,50,0.00,BKN,,0.00,WeatherDisplay:10.37,2013-04-17 14:47:00,
2013-04-17 10:52:00,59.4,40.2,30.19,WNW,292,12.7,12.7,49,0.00,BKN,,0.00,WeatherDisplay:10.37,2013-04-17 14:52:00,
2013-04-17 10:57:00,59.6,40.9,30.19,WNW,302,11.5,11.5,50,0.00,BKN,,0.00,WeatherDisplay:10.37,2013-04-17 14:57:00,
2013-04-17 11:02:00,59.7,40.5,30.19,WNW,301,12.7,12.7,49,0.00,BKN,,0.00,WeatherDisplay:10.37,2013-04-17 15:02:00,
2013-04-17 11:07:00,59.6,40.4,30.19,NW,313,12.7,12.7,49,0.00,BKN,,0.00,WeatherDisplay:10.37,2013-04-17 15:07:00,
2013-04-17 11:12:00,59.8,40.1,30.19,NNW,329,12.7,12.7,48,0.00,BKN,,0.00,WeatherDisplay:10.37,2013-04-17 15:12:00,
2013-04-17 11:18:00,60.0,40.2,30.19,NW,317,9.2,9.2,48,0.00,BKN,,0.00,WeatherDisplay:10.37,2013-04-17 15:18:00,
2013-04-17 11:23:00,60.1,40.9,30.18,West,268,11.5,11.5,49,0.00,BKN,,0.00,WeatherDisplay:10.37,2013-04-17 15:23:00,
2013-04-17 11:28:00,60.4,40.6,30.18,NNW,330,12.7,12.7,48,0.00,BKN,,0.00,WeatherDisplay:10.37,2013-04-17 15:28:00,
2013-04-17 11:33:00,60.3,40.5,30.18,West,270,11.5,11.5,48,0.00,BKN,,0.00,WeatherDisplay:10.37,2013-04-17 15:33:00,
2013-04-17 11:38:00,60.3,40.5,30.18,WNW,298,11.5,11.5,48,0.00,BKN,,0.00,WeatherDisplay:10.37,2013-04-17 15:38:00,
2013-04-17 11:44:00,60.7,41.4,30.18,NNW,347,10.0,10.0,49,0.00,BKN,,0.00,WeatherDisplay:10.37,2013-04-17 15:44:00,
2013-04-17 11:49:00,60.7,41.4,30.17,NW,306,10.4,10.4,49,0.00,BKN,,0.00,WeatherDisplay:10.37,2013-04-17 15:49:00,
2013-04-17 11:54:00,60.9,41.6,30.17,NNW,342,17.3,17.3,49,0.00,BKN,,0.00,WeatherDisplay:10.37,2013-04-17 15:54:00,
2013-04-17 11:59:00,60.5,40.2,30.17,NNW,339,11.5,11.5,47,0.00,BKN,,0.00,WeatherDisplay:10.37,2013-04-17 15:59:00,
2013-04-17 12:04:00,60.7,40.3,30.17,NW,318,12.0,12.0,47,0.00,BKN,,0.00,WeatherDisplay:10.37,2013-04-17 16:04:00,
2013-04-17 12:10:00,61.5,39.9,30.17,West,277,11.5,11.5,45,0.00,BKN,,0.00,WeatherDisplay:10.37,2013-04-17 16:10:00,
2013-04-17 12:15:00,61.8,39.1,30.17,NNW,327,11.5,11.5,43,0.00,BKN,,0.00,WeatherDisplay:10.37,2013-04-17 16:15:00,
2013-04-17 12:20:00,61.8,39.1,30.17,NW,309,11.5,11.5,43,0.00,BKN,,0.00,WeatherDisplay:10.37,2013-04-17 16:20:00,
2013-04-17 12:25:00,62.0,39.2,30.17,NW,322,12.7,12.7,43,0.00,BKN,,0.00,WeatherDisplay:10.37,2013-04-17 16:25:00,
2013-04-17 12:30:00,61.8,38.4,30.17,NW,316,12.7,12.7,42,0.00,BKN,,0.00,WeatherDisplay:10.37,2013-04-17 16:30:00,
2013-04-17 12:35:00,61.5,38.8,30.17,WNW,296,11.5,11.5,43,0.00,BKN,,0.00,WeatherDisplay:10.37,2013-04-17 16:35:00,
2013-04-17 12:40:00,62.1,38.1,30.17,NNW,333,9.2,9.2,41,0.00,BKN,,0.00,WeatherDisplay:10.37,2013-04-17 16:40:00,
2013-04-17 12:46:00,62.0,38.0,30.17,WNW,286,10.4,10.4,41,0.00,BKN,,0.00,WeatherDisplay:10.37,2013-04-17 16:46:00,
2013-04-17 12:51:00,62.4,37.7,30.17,NW,304,12.7,12.7,40,0.00,BKN,,0.00,WeatherDisplay:10.37,2013-04-17 16:51:00,
2013-04-17 12:56:00,62.6,37.3,30.16,NW,316,12.7,12.7,39,0.00,BKN,,0.00,WeatherDisplay:10.37,2013-04-17 16:56:00,
2013-04-17 13:01:00,62.4,37.7,30.16,WNW,300,9.2,9.2,40,0.00,BKN,,0.00,WeatherDisplay:10.37,2013-04-17 17:01:00,
2013-04-17 13:06:00,62.8,38.1,30.17,West,281,9.0,9.0,40,0.00,BKN,,0.00,WeatherDisplay:10.37,2013-04-17 17:06:00,
2013-04-17 13:11:00,63.3,37.9,30.16,NNW,330,12.7,12.7,39,0.00,BKN,,0.00,WeatherDisplay:10.37,2013-04-17 17:11:00,
2013-04-17 13:17:00,63.2,38.5,30.16,WNW,283,9.2,9.2,40,0.00,BKN,,0.00,WeatherDisplay:10.37,2013-04-17 17:17:00,
2013-04-17 13:22:00,63.6,38.8,30.16,WNW,302,11.5,11.5,40,0.00,BKN,,0.00,WeatherDisplay:10.37,2013-04-17 17:22:00,
2013-04-17 13:27:00,63.4,38.0,30.16,NW,310,11.5,11.5,39,0.00,BKN,,0.00,WeatherDisplay:10.37,2013-04-17 17:27:00,
2013-04-17 13:33:00,63.3,37.9,30.16,WNW,303,11.5,11.5,39,0.00,BKN,,0.00,WeatherDisplay:10.37,2013-04-17 17:33:00,
2013-04-17 13:38:00,62.9,37.5,30.16,North,355,11.5,11.5,39,0.00,BKN,,0.00,WeatherDisplay:10.37,2013-04-17 17:38:00,
2013-04-17 13:43:00,63.2,38.5,30.16,NW,323,6.9,6.9,40,0.00,BKN,,0.00,WeatherDisplay:10.37,2013-04-17 17:43:00,
2013-04-17 13:48:00,63.4,39.3,30.17,North,5,7.0,7.0,41,0.00,BKN,,0.00,WeatherDisplay:10.37,2013-04-17 17:48:00,
2013-04-17 13:53:00,63.7,38.3,30.16,WNW,299,11.5,11.5,39,0.00,BKN,,0.00,WeatherDisplay:10.37,2013-04-17 17:53:00,
2013-04-17 13:59:00,63.6,38.8,30.16,NW,317,9.2,9.2,40,0.00,BKN,,0.00,WeatherDisplay:10.37,2013-04-17 17:59:00,
2013-04-17 14:04:00,63.9,37.8,30.17,NW,325,10.4,10.4,38,0.00,BKN,,0.00,WeatherDisplay:10.37,2013-04-17 18:04:00,
2013-04-17 14:09:00,64.0,37.2,30.16,NNW,327,4.6,4.6,37,0.00,BKN,,0.00,WeatherDisplay:10.37,2013-04-17 18:09:00,
2013-04-17 14:14:00,63.9,37.8,30.16,West,280,10.4,10.4,38,0.00,BKN,,0.00,WeatherDisplay:10.37,2013-04-17 18:14:00,
2013-04-17 14:19:00,63.8,37.7,30.16,NNW,333,7.0,7.0,38,0.00,BKN,,0.00,WeatherDisplay:10.37,2013-04-17 18:19:00,
2013-04-17 14:24:00,64.3,37.5,30.16,West,280,7.0,7.0,37,0.00,BKN,,0.00,WeatherDisplay:10.37,2013-04-17 18:24:00,
2013-04-17 14:29:00,64.8,37.9,30.17,NW,319,11.0,11.0,37,0.00,BKN,,0.00,WeatherDisplay:10.37,2013-04-17 18:29:00,
2013-04-17 14:34:00,64.6,37.0,30.17,WNW,292,9.2,9.2,36,0.00,BKN,,0.00,WeatherDisplay:10.37,2013-04-17 18:34:00,
2013-04-17 14:40:00,64.7,38.5,30.17,WNW,286,8.1,8.1,38,0.00,BKN,,0.00,WeatherDisplay:10.37,2013-04-17 18:40:00,
2013-04-17 14:45:00,65.0,38.8,30.17,NNW,327,11.5,11.5,38,0.00,BKN,,0.00,WeatherDisplay:10.37,2013-04-17 18:45:00,
2013-04-17 14:50:00,64.6,37.7,30.17,WNW,296,10.4,10.4,37,0.00,BKN,,0.00,WeatherDisplay:10.37,2013-04-17 18:50:00,
2013-04-17 14:55:00,65.1,36.8,30.17,WNW,302,13.8,13.8,35,0.00,BKN,,0.00,WeatherDisplay:10.37,2013-04-17 18:55:00,
2013-04-17 15:00:00,65.2,37.6,30.17,NW,304,11.5,11.5,36,0.00,BKN,,0.00,WeatherDisplay:10.37,2013-04-17 19:00:00,
2013-04-17 15:05:00,65.2,36.8,30.16,NW,324,10.0,10.0,35,0.00,BKN,,0.00,WeatherDisplay:10.37,2013-04-17 19:05:00,
2013-04-17 15:11:00,64.8,37.9,30.16,North,5,7.0,7.0,37,0.00,BKN,,0.00,WeatherDisplay:10.37,2013-04-17 19:11:00,
2013-04-17 15:16:00,64.8,37.2,30.16,WNW,300,9.2,9.2,36,0.00,BKN,,0.00,WeatherDisplay:10.37,2013-04-17 19:16:00,
2013-04-17 15:21:00,65.0,37.4,30.16,NNW,330,11.5,11.5,36,0.00,BKN,,0.00,WeatherDisplay:10.37,2013-04-17 19:21:00,
2013-04-17 15:26:00,65.3,37.6,30.16,NW,312,9.0,9.0,36,0.00,BKN,,0.00,WeatherDisplay:10.37,2013-04-17 19:26:00,
2013-04-17 15:31:00,65.6,37.2,30.16,WNW,296,10.4,10.4,35,0.00,BKN,,0.00,WeatherDisplay:10.37,2013-04-17 19:31:00,
2013-04-17 15:37:00,65.7,37.3,30.16,NW,306,5.8,5.8,35,0.00,BKN,,0.00,WeatherDisplay:10.37,2013-04-17 19:37:00,
2013-04-17 15:42:00,65.6,37.9,30.16,West,276,4.6,4.6,36,0.00,BKN,,0.00,WeatherDisplay:10.37,2013-04-17 19:42:00,
2013-04-17 15:47:00,65.9,37.5,30.17,NW,325,9.2,9.2,35,0.00,BKN,,0.00,WeatherDisplay:10.37,2013-04-17 19:47:00,
2013-04-17 15:52:00,65.7,37.3,30.17,NNW,338,11.5,11.5,35,0.00,BKN,,0.00,WeatherDisplay:10.37,2013-04-17 19:52:00,
2013-04-17 15:58:00,65.6,36.5,30.16,WNW,289,3.5,3.5,34,0.00,BKN,,0.00,WeatherDisplay:10.37,2013-04-17 19:58:00,
2013-04-17 16:03:00,65.9,37.5,30.17,West,279,3.5,3.5,35,0.00,CLR,,0.00,WeatherDisplay:10.37,2013-04-17 20:03:00,
2013-04-17 16:08:00,66.3,36.3,30.17,West,274,6.9,6.9,33,0.00,CLR,,0.00,WeatherDisplay:10.37,2013-04-17 20:08:00,
2013-04-17 16:13:00,66.6,37.3,30.16,NNW,328,11.5,11.5,34,0.00,CLR,,0.00,WeatherDisplay:10.37,2013-04-17 20:13:00,
2013-04-17 16:18:00,66.5,36.5,30.17,WNW,289,10.4,10.4,33,0.00,CLR,,0.00,WeatherDisplay:10.37,2013-04-17 20:18:00,
2013-04-17 16:24:00,66.7,36.7,30.17,WNW,292,10.4,10.4,33,0.00,CLR,,0.00,WeatherDisplay:10.37,2013-04-17 20:24:00,
2013-04-17 16:29:00,66.8,36.0,30.17,NNW,336,2.3,2.3,32,0.00,CLR,,0.00,WeatherDisplay:10.37,2013-04-17 20:29:00,
2013-04-17 16:34:00,66.8,37.5,30.17,NNW,348,5.0,5.0,34,0.00,CLR,,0.00,WeatherDisplay:10.37,2013-04-17 20:34:00,
2013-04-17 16:39:00,66.6,37.3,30.17,North,350,5.0,5.0,34,0.00,CLR,,0.00,WeatherDisplay:10.37,2013-04-17 20:39:00,
2013-04-17 16:44:00,66.7,36.7,30.17,North,5,6.0,6.0,33,0.00,CLR,,0.00,WeatherDisplay:10.37,2013-04-17 20:44:00,
2013-04-17 16:49:00,66.6,35.8,30.17,North,355,10.4,10.4,32,0.00,CLR,,0.00,WeatherDisplay:10.37,2013-04-17 20:49:00,
2013-04-17 16:54:00,67.0,36.1,30.16,NW,317,9.0,9.0,32,0.00,CLR,,0.00,WeatherDisplay:10.37,2013-04-17 20:54:00,
2013-04-17 17:00:00,67.0,35.4,30.16,NW,307,1.0,14.0,31,0.00,CLR,,0.00,WeatherDisplay:10.37,2013-04-17 21:00:00,
2013-04-17 17:05:00,67.2,35.5,30.16,WNW,302,10.4,10.4,31,0.00,CLR,,0.00,WeatherDisplay:10.37,2013-04-17 21:05:00,
2013-04-17 17:10:00,67.3,36.4,30.16,WNW,301,9.2,9.2,32,0.00,CLR,,0.00,WeatherDisplay:10.37,2013-04-17 21:10:00,
2013-04-17 17:15:00,67.3,36.4,30.16,WNW,286,6.9,6.9,32,0.00,CLR,,0.00,WeatherDisplay:10.37,2013-04-17 21:15:00,
2013-04-17 17:20:00,67.3,36.4,30.17,NNW,331,4.0,4.0,32,0.00,CLR,,0.00,WeatherDisplay:10.37,2013-04-17 21:20:00,
2013-04-17 17:25:00,67.1,36.2,30.17,NW,311,3.5,3.5,32,0.00,CLR,,0.00,WeatherDisplay:10.37,2013-04-17 21:25:00,
2013-04-17 17:30:00,67.1,36.2,30.18,NNW,333,8.1,8.1,32,0.00,CLR,,0.00,WeatherDisplay:10.37,2013-04-17 21:30:00,
2013-04-17 17:35:00,66.8,36.0,30.18,NNW,329,7.0,7.0,32,0.00,CLR,,0.00,WeatherDisplay:10.37,2013-04-17 21:35:00,
2013-04-17 17:41:00,66.9,35.3,30.18,WNW,301,5.8,5.8,31,0.00,CLR,,0.00,WeatherDisplay:10.37,2013-04-17 21:41:00,
2013-04-17 17:46:00,67.1,35.4,30.18,NW,309,6.9,6.9,31,0.00,CLR,,0.00,WeatherDisplay:10.37,2013-04-17 21:46:00,
2013-04-17 17:51:00,67.3,36.4,30.19,NNW,327,9.2,9.2,32,0.00,CLR,,0.00,WeatherDisplay:10.37,2013-04-17 21:51:00,
2013-04-17 17:56:00,66.5,35.7,30.19,NNW,340,8.1,8.1,32,0.00,CLR,,0.00,WeatherDisplay:10.37,2013-04-17 21:56:00,
2013-04-17 18:02:00,66.5,37.2,30.19,North,10,5.8,5.8,34,0.00,CLR,,0.00,WeatherDisplay:10.37,2013-04-17 22:02:00,
2013-04-17 18:07:00,65.5,37.1,30.19,North,355,5.8,5.8,35,0.00,CLR,,0.00,WeatherDisplay:10.37,2013-04-17 22:07:00,
2013-04-17 18:12:00,65.9,36.7,30.19,North,355,9.2,9.2,34,0.00,CLR,,0.00,WeatherDisplay:10.37,2013-04-17 22:12:00,
2013-04-17 18:17:00,66.0,37.5,30.20,NNW,342,8.1,8.1,35,0.00,CLR,,0.00,WeatherDisplay:10.37,2013-04-17 22:17:00,
2013-04-17 18:22:00,65.7,35.8,30.19,NNW,338,11.5,11.5,33,0.00,CLR,,0.00,WeatherDisplay:10.37,2013-04-17 22:22:00,
2013-04-17 18:27:00,65.6,36.5,30.19,North,350,8.1,8.1,34,0.00,CLR,,0.00,WeatherDisplay:10.37,2013-04-17 22:27:00,
2013-04-17 18:32:00,65.5,37.8,30.20,NNW,333,6.9,6.9,36,0.00,CLR,,0.00,WeatherDisplay:10.37,2013-04-17 22:32:00,
2013-04-17 18:38:00,65.2,37.6,30.20,NNW,331,8.1,8.1,36,0.00,CLR,,0.00,WeatherDisplay:10.37,2013-04-17 22:38:00,
2013-04-17 18:43:00,64.9,39.3,30.20,NNW,346,8.1,8.1,39,0.00,CLR,,0.00,WeatherDisplay:10.37,2013-04-17 22:43:00,
2013-04-17 18:48:00,64.7,37.1,30.19,North,360,10.4,10.4,36,0.00,CLR,,0.00,WeatherDisplay:10.37,2013-04-17 22:48:00,
2013-04-17 18:53:00,64.5,36.9,30.20,NNW,336,9.2,9.2,36,0.00,CLR,,0.00,WeatherDisplay:10.37,2013-04-17 22:53:00,
2013-04-17 18:58:00,64.5,37.6,30.20,North,355,8.1,8.1,37,0.00,CLR,,0.00,WeatherDisplay:10.37,2013-04-17 22:58:00,
2013-04-17 19:03:00,64.5,36.9,30.20,North,360,7.0,7.0,36,0.00,CLR,,0.00,WeatherDisplay:10.37,2013-04-17 23:03:00,
2013-04-17 19:08:00,64.3,38.1,30.21,NNW,341,6.0,6.0,38,0.00,CLR,,0.00,WeatherDisplay:10.37,2013-04-17 23:08:00,
2013-04-17 19:13:00,64.3,37.5,30.21,NNW,346,9.2,9.2,37,0.00,CLR,,0.00,WeatherDisplay:10.37,2013-04-17 23:13:00,
2013-04-17 19:18:00,64.4,37.5,30.21,NNW,339,6.9,6.9,37,0.00,CLR,,0.00,WeatherDisplay:10.37,2013-04-17 23:18:00,
2013-04-17 19:23:00,64.0,37.9,30.21,NNW,345,5.8,5.8,38,0.00,CLR,,0.00,WeatherDisplay:10.37,2013-04-17 23:23:00,
2013-04-17 19:29:00,63.7,38.9,30.22,NNW,340,5.8,5.8,40,0.00,CLR,,0.00,WeatherDisplay:10.37,2013-04-17 23:29:00,
2013-04-17 19:34:00,63.4,38.6,30.22,NNW,332,6.9,6.9,40,0.00,CLR,,0.00,WeatherDisplay:10.37,2013-04-17 23:34:00,
2013-04-17 19:39:00,63.2,37.8,30.22,NNW,329,4.6,4.6,39,0.00,CLR,,0.00,WeatherDisplay:10.37,2013-04-17 23:39:00,
2013-04-17 19:44:00,63.1,36.4,30.22,NNW,331,3.5,3.5,37,0.00,CLR,,0.00,WeatherDisplay:10.37,2013-04-17 23:44:00,
2013-04-17 19:49:00,63.0,35.6,30.22,NNW,331,3.5,3.5,36,0.00,CLR,,0.00,WeatherDisplay:10.37,2013-04-17 23:49:00,
2013-04-17 19:54:00,62.9,34.8,30.23,NNW,331,3.5,3.5,35,0.00,CLR,,0.00,WeatherDisplay:10.37,2013-04-17 23:54:00,
2013-04-17 20:00:00,62.8,36.1,30.23,NNW,331,3.5,3.5,37,0.00,CLR,,0.00,WeatherDisplay:10.37,2013-04-18 00:00:00,
2013-04-17 20:05:00,62.6,35.3,30.23,NNW,331,3.5,3.5,36,0.00,FEW,,0.00,WeatherDisplay:10.37,2013-04-18 00:05:00,
2013-04-17 20:10:00,62.4,34.4,30.23,NNW,331,0.0,0.0,35,0.00,FEW,,0.00,WeatherDisplay:10.37,2013-04-18 00:10:00,
2013-04-17 20:15:00,62.1,35.5,30.23,NNW,331,0.0,0.0,37,0.00,FEW,,0.00,WeatherDisplay:10.37,2013-04-18 00:15:00,
2013-04-17 20:20:00,60.7,38.6,30.24,ESE,106,16.1,16.1,44,0.00,FEW,,0.00,WeatherDisplay:10.37,2013-04-18 00:20:00,
2013-04-17 20:25:00,58.0,41.4,30.25,East,99,16.1,16.1,54,0.00,FEW,,0.00,WeatherDisplay:10.37,2013-04-18 00:25:00,
2013-04-17 20:31:00,56.0,42.3,30.25,East,94,12.7,12.7,60,0.00,FEW,,0.00,WeatherDisplay:10.37,2013-04-18 00:31:00,
2013-04-17 20:36:00,54.7,43.2,30.25,East,100,12.7,12.7,65,0.00,FEW,,0.00,WeatherDisplay:10.37,2013-04-18 00:36:00,
2013-04-17 20:41:00,53.9,43.6,30.25,East,101,11.5,11.5,68,0.00,FEW,,0.00,WeatherDisplay:10.37,2013-04-18 00:41:00,
2013-04-17 20:46:00,53.3,43.4,30.26,East,96,11.5,11.5,69,0.00,FEW,,0.00,WeatherDisplay:10.37,2013-04-18 00:46:00,
2013-04-17 20:52:00,52.9,43.7,30.26,East,96,5.8,5.8,71,0.00,FEW,,0.00,WeatherDisplay:10.37,2013-04-18 00:52:00,
2013-04-17 20:57:00,52.7,43.2,30.26,ENE,78,8.1,8.1,70,0.00,FEW,,0.00,WeatherDisplay:10.37,2013-04-18 00:57:00,
2013-04-17 21:02:00,52.4,43.3,30.27,ENE,76,10.4,10.4,71,0.00,CLR,,0.00,WeatherDisplay:10.37,2013-04-18 01:02:00,
2013-04-17 21:07:00,52.1,43.3,30.27,ENE,78,6.9,6.9,72,0.00,CLR,,0.00,WeatherDisplay:10.37,2013-04-18 01:07:00,
2013-04-17 21:12:00,51.9,43.9,30.28,East,82,5.8,5.8,74,0.00,CLR,,0.00,WeatherDisplay:10.37,2013-04-18 01:12:00,
2013-04-17 21:17:00,51.6,43.9,30.28,East,85,6.0,6.0,75,0.00,CLR,,0.00,WeatherDisplay:10.37,2013-04-18 01:17:00,
2013-04-17 21:23:00,51.2,43.9,30.28,East,90,7.0,7.0,76,0.00,CLR,,0.00,WeatherDisplay:10.37,2013-04-18 01:23:00,
2013-04-17 21:28:00,51.0,44.4,30.28,ESE,103,7.0,7.0,78,0.00,CLR,,0.00,WeatherDisplay:10.37,2013-04-18 01:28:00,
2013-04-17 21:33:00,50.7,44.4,30.29,East,98,4.6,4.6,79,0.00,CLR,,0.00,WeatherDisplay:10.37,2013-04-18 01:33:00,
2013-04-17 21:38:00,50.5,44.6,30.29,East,98,4.0,4.0,80,0.00,CLR,,0.00,WeatherDisplay:10.37,2013-04-18 01:38:00,
2013-04-17 21:43:00,50.4,44.5,30.29,East,98,4.6,4.6,80,0.00,CLR,,0.00,WeatherDisplay:10.37,2013-04-18 01:43:00,
2013-04-17 21:49:00,50.3,44.4,30.30,East,98,3.5,3.5,80,0.00,CLR,,0.00,WeatherDisplay:10.37,2013-04-18 01:49:00,
2013-04-17 21:54:00,50.1,44.2,30.29,East,96,5.0,5.0,80,0.00,CLR,,0.00,WeatherDisplay:10.37,2013-04-18 01:54:00,
2013-04-17 21:59:00,50.0,44.1,30.30,East,88,4.6,4.6,80,0.00,CLR,,0.00,WeatherDisplay:10.37,2013-04-18 01:59:00,
2013-04-17 22:04:00,49.9,44.0,30.30,East,85,5.8,5.8,80,0.00,CLR,,0.00,WeatherDisplay:10.37,2013-04-18 02:04:00,
2013-04-17 22:09:00,49.8,43.5,30.30,East,83,4.0,4.0,79,0.00,CLR,,0.00,WeatherDisplay:10.37,2013-04-18 02:09:00,
2013-04-17 22:14:00,49.7,43.5,30.31,East,82,4.6,4.6,79,0.00,CLR,,0.00,WeatherDisplay:10.37,2013-04-18 02:14:00,
2013-04-17 22:19:00,49.6,43.4,30.30,East,82,5.0,5.0,79,0.00,CLR,,0.00,WeatherDisplay:10.37,2013-04-18 02:19:00,
2013-04-17 22:24:00,49.6,43.4,30.30,East,82,4.0,4.0,79,0.00,CLR,,0.00,WeatherDisplay:10.37,2013-04-18 02:24:00,
2013-04-17 22:29:00,49.6,43.0,30.30,East,82,3.5,3.5,78,0.00,CLR,,0.00,WeatherDisplay:10.37,2013-04-18 02:29:00,
2013-04-17 22:35:00,49.5,43.3,30.30,East,82,3.5,3.5,79,0.00,CLR,,0.00,WeatherDisplay:10.37,2013-04-18 02:35:00,
2013-04-17 22:40:00,49.4,43.2,30.30,East,82,2.3,2.3,79,0.00,CLR,,0.00,WeatherDisplay:10.37,2013-04-18 02:40:00,
2013-04-17 22:45:00,49.4,43.5,30.30,East,82,3.5,3.5,80,0.00,CLR,,0.00,WeatherDisplay:10.37,2013-04-18 02:45:00,
2013-04-17 22:50:00,49.3,43.4,30.30,East,82,3.5,3.5,80,0.00,CLR,,0.00,WeatherDisplay:10.37,2013-04-18 02:50:00,
2013-04-17 22:55:00,49.3,43.1,30.30,East,82,2.3,2.3,79,0.00,CLR,,0.00,WeatherDisplay:10.37,2013-04-18 02:55:00,
2013-04-17 23:00:00,49.3,43.1,30.30,East,82,3.5,3.5,79,0.00,CLR,,0.00,WeatherDisplay:10.37,2013-04-18 03:00:00,
2013-04-17 23:05:00,49.3,42.7,30.30,East,82,3.5,3.5,78,0.00,CLR,,0.00,WeatherDisplay:10.37,2013-04-18 03:05:00,
2013-04-17 23:10:00,49.3,43.1,30.30,East,82,0.0,0.0,79,0.00,CLR,,0.00,WeatherDisplay:10.37,2013-04-18 03:10:00,
2013-04-17 23:16:00,49.2,43.3,30.30,East,82,2.3,2.3,80,0.00,CLR,,0.00,WeatherDisplay:10.37,2013-04-18 03:16:00,
2013-04-17 23:21:00,49.0,43.1,30.30,East,82,0.0,0.0,80,0.00,CLR,,0.00,WeatherDisplay:10.37,2013-04-18 03:21:00,
2013-04-17 23:26:00,48.9,43.0,30.30,East,82,0.0,0.0,80,0.00,CLR,,0.00,WeatherDisplay:10.37,2013-04-18 03:26:00,
2013-04-17 23:32:00,48.8,43.2,30.30,East,82,2.3,2.3,81,0.00,CLR,,0.00,WeatherDisplay:10.37,2013-04-18 03:32:00,
2013-04-17 23:37:00,48.6,43.0,30.30,East,82,0.0,0.0,81,0.00,CLR,,0.00,WeatherDisplay:10.37,2013-04-18 03:37:00,
2013-04-17 23:42:00,48.4,42.8,30.30,East,82,3.5,3.5,81,0.00,CLR,,0.00,WeatherDisplay:10.37,2013-04-18 03:42:00,
2013-04-17 23:47:00,48.2,43.9,30.31,East,82,3.5,3.5,85,0.00,CLR,,0.00,WeatherDisplay:10.37,2013-04-18 03:47:00,
2013-04-17 23:52:00,48.1,42.5,30.31,East,82,1.1,1.1,81,0.00,CLR,,0.00,WeatherDisplay:10.37,2013-04-18 03:52:00,
2013-04-17 23:57:00,48.0,42.4,30.31,East,82,0.0,0.0,81,0.00,CLR,,0.00,WeatherDisplay:10.37,2013-04-18 03:57:00,